• Join FlightAware (Why Join?)
  • Login
  • US Flag 
04:21AM EDT


 

Airport Tracker/Info


-or-


 

Live Flight TrackerFlight Track Log ✈ AAL621 ✈ 27-Feb-2014 ✈ KPHX - KSNA

Flight Track Log - Related Links

Times and Time Zones

All times are in EST time to prevent confusion due to time zone crossing. See the AAL621 flight status page for this flight to view local times or setup timezone preferences in your user account.

Time Position Orientation Groundspeed Altitude Reporting Facility
EST Latitude Longitude Course Direction KTS MPH feet Rate Location/Type
01:53PM 33.4402 -112.5512 273° West  Level FlightAware Approximate
01:53PM 33.3661 -111.8497 262° West 229 264 9,900  Level FlightAware ADS-B (KDMA)
01:53PM 33.3662 -111.8626 274° West 242 278 10,100 1,740 Climbing FlightAware ADS-B (KDMA)
01:54PM 33.3802 -112.0069 276° West 319 367 12,800 2,340 Climbing FlightAware ADS-B (KDMA)
01:55PM 33.3901 -112.1149 276° West 318 366 16,100 2,940 Climbing FlightAware ADS-B (KDMA)
01:56PM 33.3966 -112.1854 276° West 321 369 17,900 2,400 Climbing FlightAware ADS-B (KDMA)
01:57PM 33.4031 -112.2569 276° West 325 374 19,400 2,280 Climbing FlightAware ADS-B (KDMA)
01:57PM 33.4094 -112.3265 276° West 330 380 20,900 2,280 Climbing FlightAware ADS-B (KDMA)
01:58PM 33.4148 -112.3862 276° West 331 381 22,100 2,040 Climbing FlightAware ADS-B (KDMA)
01:58PM 33.4199 -112.4417 276° West 333 383 23,100 1,800 Climbing FlightAware ADS-B (KDMA)
01:59PM 33.4247 -112.4959 276° West 336 387 23,900 840 Climbing FlightAware ADS-B (KDMA)
01:59PM 33.4299 -112.5539 276° West 335 386 24,000 60 Climbing FlightAware ADS-B (KDMA)
02:00PM 33.4347 -112.6094 276° West 336 387 24,000  Level FlightAware ADS-B (KDMA)
02:01PM 33.4449 -112.7243 276° West 336 387 24,000  Level FlightAware ADS-B (KDMA)
02:01PM 33.4499 -112.7815 276° West 336 387 24,000  Level FlightAware ADS-B (KDMA)
02:02PM 33.4638 -112.8766 277° West 330 380 24,000  Level FlightAware ADS-B (KDMA)
02:03PM 33.4806 -112.9631 277° West 330 380 24,000  Level Albuquerque Center
02:04PM 33.5006 -113.0681 283° West 327 376 24,000  Level Albuquerque Center
02:05PM 33.5217 -113.1747 283° West 328 377 24,000  Level Albuquerque Center
02:06PM 33.5411 -113.2825 282° West 331 381 24,000  Level Albuquerque Center
02:07PM 33.5617 -113.3903 283° West 332 382 24,000  Level Albuquerque Center
02:08PM 33.5861 -113.5192 283° West 333 383 24,000 -60 Level Albuquerque Center
02:09PM 33.6067 -113.6258 283° West 330 380 23,900  Descending Albuquerque Center
02:10PM 33.6258 -113.7269 283° West 334 384 24,000  Climbing Albuquerque Center
02:12PM 33.6433 -113.8353 281° West 332 382 24,000  Level Albuquerque Center
02:13PM 33.6550 -113.9664 276° West 331 381 24,000  Level Albuquerque Center
02:14PM 33.6672 -114.0789 277° West 337 388 24,000  Level Albuquerque Center
02:15PM 33.6772 -114.1869 276° West 330 380 24,000  Level Albuquerque Center
02:16PM 33.6883 -114.3014 277° West 327 376 24,000  Level Albuquerque Center
02:17PM 33.6981 -114.4056 276° West 329 379 24,000  Level Los Angeles Center
02:18PM 33.7114 -114.5378 277° West 334 384 24,000 -60 Level Los Angeles Center
02:19PM 33.7214 -114.6489 276° West 334 384 23,900  Descending Los Angeles Center
02:20PM 33.7308 -114.7547 276° West 326 375 24,000  Climbing Los Angeles Center
02:21PM 33.7394 -114.8547 276° West 309 356 24,000  Level Los Angeles Center
02:22PM 33.7492 -114.9569 277° West 307 353 24,000  Level Los Angeles Center
02:23PM 33.7594 -115.0789 276° West 307 353 24,000  Level Los Angeles Center
02:24PM 33.7683 -115.1825 276° West 311 358 24,000 -60 Level Los Angeles Center
02:25PM 33.7772 -115.2836 276° West 307 353 23,900  Descending Los Angeles Center
02:30PM 33.8169 -115.7644 276° West 309 356 24,000  Climbing FlightAware ADS-B (KBNG)
02:32PM 33.8415 -116.0665 276° West 309 356 24,000 -60 Level FlightAware ADS-B (KBNG)
02:34PM 33.8541 -116.2250 275° West 352 405 23,800 -420 Descending FlightAware ADS-B (KBNG)
02:34PM 33.8601 -116.3010 275° West 345 397 23,200 -1,080 Descending FlightAware ADS-B (KBNG)
02:35PM 33.8668 -116.3878 275° West 335 386 22,300 -1,080 Descending FlightAware ADS-B (KBNG)
02:36PM 33.8714 -116.4467 274° West 339 390 21,800 -1,020 Descending FlightAware ADS-B (KBNG)
02:36PM 33.8720 -116.4572 275° West 337 388 21,600 -1,800 Descending FlightAware ADS-B
02:36PM 33.8744 -116.5167 273° West 337 388 20,600 -1,860 Descending FlightAware ADS-B (KBNG)
02:37PM 33.8776 -116.5850 273° West 332 382 19,600 -1,920 Descending FlightAware ADS-B
02:37PM 33.8801 -116.6396 273° West 327 376 18,500 -2,220 Descending FlightAware ADS-B
02:38PM 33.8825 -116.6903 273° West 324 373 17,400 -2,580 Descending FlightAware ADS-B
02:39PM 33.8858 -116.7629 273° West 320 368 15,600 -2,580 Descending FlightAware ADS-B (KBNG)
02:39PM 33.8884 -116.8219 273° West 314 361 14,500 -1,920 Descending FlightAware ADS-B (KBNG)
02:39PM 33.8879 -116.8567 261° West 311 358 14,000 -600 Descending FlightAware ADS-B (KBNG)
02:40PM 33.8789 -116.9111 259° West 316 364 14,000 -120 Level FlightAware ADS-B (KBNG)
02:41PM 33.8673 -116.9809 259° West 314 361 13,900 -600 Descending FlightAware ADS-B (KBNG)
02:41PM 33.8552 -117.0534 259° West 310 357 13,200 -1,020 Descending FlightAware ADS-B (KBNG)
02:42PM 33.8448 -117.1153 259° West 305 351 12,600 -960 Descending FlightAware ADS-B (KBNG)
02:42PM 33.8429 -117.1265 259° West 304 350 12,500 -780 Descending FlightAware ADS-B
02:43PM 33.8356 -117.1694 259° West 285 328 12,100 -900 Descending FlightAware ADS-B
02:43PM 33.8270 -117.2194 259° West 267 307 11,600 -1,020 Descending FlightAware ADS-B
02:44PM 33.8203 -117.2585 259° West 253 291 11,100 -900 Descending FlightAware ADS-B
02:45PM 33.8064 -117.3405 258° West 220 253 10,200 -720 Descending FlightAware ADS-B (KBNG)
02:45PM 33.7987 -117.3855 258° West 214 246 9,900 -660 Descending FlightAware ADS-B
02:46PM 33.7940 -117.4129 259° West 217 250 9,600 -1,140 Descending FlightAware ADS-B
02:46PM 33.7893 -117.4403 258° West 223 257 9,100 -1,380 Descending FlightAware ADS-B
02:47PM 33.7810 -117.4880 259° West 227 261 8,200 -1,140 Descending FlightAware ADS-B
02:47PM 33.7797 -117.5138 271° West 215 247 8,000 -360 Descending FlightAware ADS-B
02:47PM 33.7800 -117.5329 270° West 215 247 8,000 -840 Level FlightAware ADS-B
02:48PM 33.7801 -117.5742 271° West 221 254 7,300 -1,380 Descending FlightAware ADS-B
02:48PM 33.7809 -117.5866 281° West 225 259 7,000 -1,800 Descending FlightAware ADS-B
02:48PM 33.7823 -117.5925 289° West 225 259 6,800 -900 Descending FlightAware ADS-B
02:49PM 33.7897 -117.6180 289° West 211 243 6,600 -300 Descending FlightAware ADS-B
02:49PM 33.7964 -117.6419 289° West 192 221 6,600 -1,560 Level FlightAware ADS-B
02:50PM 33.8156 -117.7087 289° West 202 232 4,300 -1,680 Descending FlightAware ADS-B
02:51PM 33.8258 -117.7711 235° Southwest 185 213 3,000 -1,200 Descending FlightAware ADS-B
02:51PM 33.8196 -117.7772 211° Southwest 183 211 3,000 -600 Level FlightAware ADS-B
02:52PM 33.8039 -117.7873 208° Southwest 181 208 2,700 -840 Descending FlightAware ADS-B
02:52PM 33.7903 -117.7962 209° Southwest 178 205 2,400 -780 Descending FlightAware ADS-B
02:53PM 33.7478 -117.8222 209° Southwest 177 204 1,600 -780 Descending Los Angeles Center
02:54PM 33.7111 -117.8461 208° Southwest 164 189 800 -660 Descending Los Angeles Center
02:55PM 33.6719 -117.8697 207° Southwest 154 177 300 -540 Descending Los Angeles Center